logo
Search for airport 
image banner adimage banner adimage banner ad
image banner ad

KEEN - Dillant/Hopkins

Located in Keene, United States

ICAO - EEN, IATA - EEN

Data provided by Airmate  

General information

Coordinates: N42°53'54" W72°16'15"
Elevation is 488 feet MSL.
Magnetic variation is -15° East
View others Airports in New Hampshire

Operational data

Special qualification required
Current time UTC:
Current local time:
Weather
METAR: KEEN 270156Z AUTO VRB05G16KT 9SM -RA FEW027 BKN050 OVC060 20/18 A2997 RMK AO2 LTG DSNT SE TSB40E55RAB42 SLP151 P0001 T02000178 $
View NOTAMs / SUP AIP / TFR affecting this airport [VIEW]
Communications frequencies: [VIEW]

Runways:

RWY identifierQFULength (ft)Width (ft)SurfaceLDA (ft)
026201100ASPH
20183°6201100ASPH
14127°400175ASPH
32307°400175ASPH

Airport contact information

Address: Keene United States

Other aviation service providers

Flight schools

Monadnock Aviation

Monadnock Aviation

Satellite view of KEEN